Time;durP1;ratioP1;P1;durP2;ratioP2;P2;SDS_P1;SDS_P2;PMS_P1;PMS_P2;Temp;Humidity;BMP_temperature;BMP_pressure;BME280_temperature;BME280_humidity;BME280_pressure;Samples;Min_cycle;Max_cycle;Signal;HPM_P1;HPM_P2
2022/01/04 00:01:23;;;;;;;13.43;3.38;;;7.50;99.90;;;;;;5061754;28;20549;-50
2022/01/04 00:03:49;;;;;;;19.67;4.00;;;7.40;99.90;;;;;;5057232;28;20047;-49
2022/01/04 00:06:15;;;;;;;21.05;3.85;;;7.40;99.90;;;;;;5076703;28;20514;-48
2022/01/04 00:08:41;;;;;;;17.52;3.67;;;7.40;99.90;;;;;;5058241;28;20064;-47
2022/01/04 00:11:19;;;;;;;19.17;4.05;;;7.40;99.90;;;;;;5057239;28;20070;-48
2022/01/04 00:13:45;;;;;;;19.13;3.40;;;7.30;99.90;;;;;;5063945;28;20057;-48
2022/01/04 00:16:12;;;;;;;19.05;4.50;;;7.30;99.90;;;;;;5054146;28;20036;-50
2022/01/04 00:18:39;;;;;;;20.10;4.27;;;7.30;99.90;;;;;;5059503;28;20041;-49
2022/01/04 00:21:06;;;;;;;21.50;4.60;;;7.30;99.90;;;;;;5058978;28;20482;-44
2022/01/04 00:23:32;;;;;;;22.77;5.07;;;7.20;99.90;;;;;;5064803;28;20114;-50
2022/01/04 00:25:58;;;;;;;26.23;4.95;;;7.20;99.90;;;;;;5044200;28;20048;-46
2022/01/04 00:28:24;;;;;;;25.85;4.82;;;7.20;99.90;;;;;;5060721;28;20139;-48
2022/01/04 00:30:52;;;;;;;23.25;4.75;;;7.20;99.90;;;;;;5064213;28;20498;-50
2022/01/04 00:33:18;;;;;;;21.80;4.80;;;7.20;99.90;;;;;;5024188;28;20041;-48
2022/01/04 00:35:46;;;;;;;26.17;5.20;;;7.10;99.90;;;;;;5066717;28;20738;-47
2022/01/04 00:38:12;;;;;;;18.83;4.47;;;7.10;99.90;;;;;;5062160;28;20039;-49
2022/01/04 00:40:38;;;;;;;27.73;5.27;;;7.10;99.90;;;;;;5061029;28;20048;-48
2022/01/04 00:43:05;;;;;;;21.80;3.67;;;7.10;99.90;;;;;;5077748;28;20121;-52
2022/01/04 00:45:33;;;;;;;28.98;4.47;;;7.00;99.90;;;;;;5051020;28;20074;-48
2022/01/04 00:50:33;;;;;;;23.38;4.05;;;7.00;99.90;;;;;;5062578;28;20639;-46
2022/01/04 00:52:58;;;;;;;;;;;7.10;99.90;;;;;;5059853;28;20060;-48
2022/01/04 00:55:26;;;;;;;21.23;4.57;;;7.10;99.90;;;;;;5075499;28;19924;-51
2022/01/04 00:57:52;;;;;;;22.83;4.75;;;7.10;99.90;;;;;;5040416;28;20114;-48
2022/01/04 01:00:24;;;;;;;19.58;4.22;;;7.10;99.90;;;;;;5063381;28;20475;-49
2022/01/04 01:02:50;;;;;;;19.05;5.03;;;7.10;99.90;;;;;;5065098;28;20063;-46
2022/01/04 01:05:18;;;;;;;26.00;4.90;;;7.10;99.90;;;;;;5065040;28;20181;-47
2022/01/04 01:07:44;;;;;;;19.30;5.25;;;7.10;99.90;;;;;;5063387;28;20581;-47
2022/01/04 01:10:34;;;;;;;18.63;5.55;;;7.10;99.90;;;;;;5066689;28;20127;-46
2022/01/04 01:12:59;;;;;;;23.00;5.88;;;7.10;99.90;;;;;;5069287;28;20097;-50
2022/01/04 01:15:25;;;;;;;18.05;4.80;;;7.10;99.90;;;;;;5055070;28;20052;-49
2022/01/04 01:17:51;;;;;;;22.10;5.90;;;7.10;99.90;;;;;;5062981;28;20040;-50
2022/01/04 01:20:18;;;;;;;25.10;5.63;;;7.10;99.90;;;;;;5058646;28;20164;-48
2022/01/04 01:22:44;;;;;;;21.02;5.45;;;7.10;99.90;;;;;;5050220;28;20044;-48
2022/01/04 01:25:12;;;;;;;23.13;5.45;;;7.10;99.90;;;;;;5074522;28;20127;-45
2022/01/04 01:27:38;;;;;;;20.00;5.88;;;7.10;99.90;;;;;;5059255;28;20032;-48
2022/01/04 01:30:05;;;;;;;28.38;6.43;;;7.10;99.90;;;;;;5068242;28;20049;-49
2022/01/04 01:32:31;;;;;;;26.50;6.33;;;7.10;99.90;;;;;;5073718;28;20090;-50
2022/01/04 01:34:57;;;;;;;28.33;6.57;;;7.10;99.90;;;;;;5047763;28;20869;-49
2022/01/04 01:37:22;;;;;;;25.58;6.50;;;7.20;99.90;;;;;;5061163;28;20128;-46
2022/01/04 01:39:48;;;;;;;27.70;6.70;;;7.20;99.90;;;;;;5070411;28;20039;-49
2022/01/04 01:42:14;;;;;;;20.95;5.63;;;7.30;99.90;;;;;;5065982;28;20044;-47
2022/01/04 01:44:40;;;;;;;20.60;5.70;;;7.30;99.90;;;;;;5067854;28;20406;-49
2022/01/04 01:47:07;;;;;;;31.15;6.95;;;7.30;99.90;;;;;;5064542;28;20041;-49
2022/01/04 01:49:33;;;;;;;27.08;6.40;;;7.30;99.90;;;;;;5064415;28;20442;-50
2022/01/04 01:52:00;;;;;;;23.27;5.65;;;7.30;99.90;;;;;;5064617;28;20496;-50
2022/01/04 01:54:27;;;;;;;23.05;6.45;;;7.40;99.90;;;;;;5064442;28;20554;-47
2022/01/04 01:56:53;;;;;;;28.00;6.25;;;7.40;99.90;;;;;;5069450;28;20044;-51
2022/01/04 01:59:20;;;;;;;25.73;7.43;;;7.40;99.90;;;;;;5062590;28;20039;-49
2022/01/04 02:01:46;;;;;;;23.27;5.97;;;7.40;99.90;;;;;;5056512;28;20072;-50
2022/01/04 02:04:12;;;;;;;23.02;6.50;;;7.40;99.90;;;;;;5067080;28;20045;-48
2022/01/04 02:06:40;;;;;;;24.80;6.45;;;7.40;99.90;;;;;;5068045;28;20045;-51
2022/01/04 02:09:06;;;;;;;;;;;7.50;99.90;;;;;;5063981;28;20391;-48
2022/01/04 02:11:32;;;;;;;22.35;6.07;;;7.50;99.90;;;;;;5052169;28;19932;-50
2022/01/04 02:14:02;;;;;;;23.20;6.57;;;7.50;99.90;;;;;;5067269;28;20048;-49
2022/01/04 02:16:30;;;;;;;27.90;5.82;;;7.50;99.90;;;;;;5066941;28;20047;-48
2022/01/04 02:19:07;;;;;;;;;;;7.50;99.90;;;;;;5064955;28;20052;-49
2022/01/04 02:21:34;;;;;;;24.92;6.65;;;7.50;99.90;;;;;;5064843;28;20007;-46
2022/01/04 02:24:01;;;;;;;23.05;6.53;;;7.40;99.90;;;;;;5049116;28;20044;-50
2022/01/04 02:26:30;;;;;;;15.70;5.28;;;7.40;99.90;;;;;;5047200;28;20442;-48
2022/01/04 02:28:56;;;;;;;21.52;5.32;;;7.40;99.90;;;;;;5061086;28;20036;-47
2022/01/04 02:31:22;;;;;;;26.98;7.07;;;7.40;99.90;;;;;;5069401;28;20516;-49
2022/01/04 02:33:48;;;;;;;25.00;5.68;;;7.40;99.90;;;;;;5065655;28;20066;-51
2022/01/04 02:36:14;;;;;;;26.38;6.53;;;7.40;99.90;;;;;;5055240;28;20475;-49
2022/01/04 02:38:40;;;;;;;22.48;5.75;;;7.40;99.90;;;;;;5061975;28;20037;-51
2022/01/04 02:41:06;;;;;;;18.40;5.38;;;7.40;99.90;;;;;;5077406;28;20041;-47
2022/01/04 02:43:32;;;;;;;24.67;6.43;;;7.40;99.90;;;;;;5062197;28;20040;-51
2022/01/04 02:45:58;;;;;;;25.45;5.80;;;7.40;99.90;;;;;;5060034;28;20158;-51
2022/01/04 02:48:24;;;;;;;21.92;5.95;;;7.40;99.90;;;;;;5068546;28;20048;-45
2022/01/04 02:50:50;;;;;;;25.15;6.00;;;7.40;99.90;;;;;;5040643;28;20106;-50
2022/01/04 02:53:19;;;;;;;25.45;6.28;;;7.40;99.90;;;;;;5064778;28;20124;-51
2022/01/04 02:55:45;;;;;;;24.02;5.55;;;7.40;99.90;;;;;;5057604;28;20063;-50
2022/01/04 02:58:12;;;;;;;23.10;5.43;;;7.40;99.90;;;;;;5060592;28;20505;-51
2022/01/04 03:00:39;;;;;;;33.17;5.90;;;7.40;99.90;;;;;;5061009;28;20080;-50
2022/01/04 03:03:05;;;;;;;23.25;5.63;;;7.40;99.90;;;;;;5050861;28;20442;-48
2022/01/04 03:05:31;;;;;;;25.25;6.28;;;7.40;99.90;;;;;;5058201;28;20475;-50
2022/01/04 03:07:58;;;;;;;22.58;5.50;;;7.40;99.90;;;;;;5062560;28;20052;-49
2022/01/04 03:10:24;;;;;;;19.27;5.03;;;7.70;99.90;;;;;;5063055;28;20032;-50
2022/01/04 03:12:50;;;;;;;17.83;5.25;;;7.40;99.90;;;;;;5065225;28;20132;-49
2022/01/04 03:15:16;;;;;;;16.92;4.90;;;7.40;99.90;;;;;;5044470;28;20123;-46
2022/01/04 03:17:42;;;;;;;18.38;5.32;;;7.40;99.90;;;;;;5060778;28;20428;-50
2022/01/04 03:20:10;;;;;;;27.35;5.90;;;7.50;99.90;;;;;;5041676;28;20605;-46
2022/01/04 03:22:35;;;;;;;25.88;5.38;;;7.50;99.90;;;;;;5063569;28;20116;-47
2022/01/04 03:25:02;;;;;;;22.88;5.30;;;7.50;99.90;;;;;;5051825;28;20799;-48
2022/01/04 03:27:29;;;;;;;19.58;5.10;;;7.50;99.90;;;;;;5046950;28;20048;-45
2022/01/04 03:29:55;;;;;;;21.05;5.88;;;7.50;99.90;;;;;;5060482;28;20478;-47
2022/01/04 03:32:22;;;;;;;30.83;5.82;;;7.50;99.90;;;;;;5066023;28;20045;-46
2022/01/04 03:34:49;;;;;;;18.83;5.00;;;7.50;99.90;;;;;;5063933;28;20374;-48
2022/01/04 03:37:15;;;;;;;19.45;5.15;;;7.50;99.90;;;;;;5057980;28;20471;-50
2022/01/04 03:39:41;;;;;;;23.98;5.85;;;7.60;99.90;;;;;;5062298;28;20061;-46
2022/01/04 03:42:07;;;;;;;25.85;6.15;;;7.60;99.90;;;;;;5060287;28;20127;-51
2022/01/04 03:44:34;;;;;;;21.35;5.43;;;7.60;99.90;;;;;;5047920;28;20471;-50
2022/01/04 03:47:00;;;;;;;21.92;5.15;;;7.60;99.90;;;;;;5059478;28;20035;-47
2022/01/04 03:49:26;;;;;;;25.08;6.22;;;7.50;99.90;;;;;;5063610;28;20078;-49
2022/01/04 03:51:52;;;;;;;21.65;5.07;;;7.60;99.90;;;;;;5065307;28;20044;-49
2022/01/04 03:54:19;;;;;;;20.00;6.70;;;7.60;99.90;;;;;;5065331;28;20041;-49
2022/01/04 03:56:46;;;;;;;22.23;6.13;;;7.60;99.90;;;;;;5067451;28;20080;-46
2022/01/04 03:59:12;;;;;;;26.20;6.07;;;7.60;99.90;;;;;;5059425;28;20101;-48
2022/01/04 04:01:39;;;;;;;17.45;5.03;;;7.60;99.90;;;;;;5066727;28;20048;-48
2022/01/04 04:04:06;;;;;;;26.80;5.47;;;7.60;99.90;;;;;;5061687;28;20432;-47
2022/01/04 04:06:32;;;;;;;24.30;5.75;;;7.50;99.90;;;;;;5061384;28;20048;-48
2022/01/04 04:08:58;;;;;;;22.73;6.00;;;7.50;99.90;;;;;;5059822;28;20093;-46
2022/01/04 04:11:27;;;;;;;23.70;6.13;;;7.50;99.90;;;;;;5052224;28;20394;-49
2022/01/04 04:13:53;;;;;;;28.83;6.60;;;7.50;99.90;;;;;;5065907;28;20558;-49
2022/01/04 04:16:19;;;;;;;21.58;6.07;;;7.60;99.90;;;;;;5056676;28;20097;-49
2022/01/04 04:18:45;;;;;;;24.63;6.72;;;7.50;99.90;;;;;;5059354;28;20506;-47
2022/01/04 04:21:12;;;;;;;23.90;6.18;;;7.60;99.90;;;;;;5056076;28;20028;-46
2022/01/04 04:23:38;;;;;;;28.83;5.80;;;7.60;99.90;;;;;;5065916;28;20044;-49
2022/01/04 04:26:06;;;;;;;30.55;6.43;;;7.60;99.90;;;;;;5067641;28;20048;-50
2022/01/04 04:28:32;;;;;;;23.10;6.35;;;7.60;99.90;;;;;;5055154;28;20514;-49
2022/01/04 04:30:59;;;;;;;20.67;5.65;;;7.60;99.90;;;;;;5070905;28;20194;-50
2022/01/04 04:33:26;;;;;;;28.13;6.30;;;7.40;99.90;;;;;;5067631;28;20052;-47
2022/01/04 04:35:51;;;;;;;22.65;5.65;;;7.60;99.90;;;;;;5062452;28;20041;-50
2022/01/04 04:38:18;;;;;;;33.65;6.13;;;7.60;99.90;;;;;;5064030;28;20044;-49
2022/01/04 04:40:45;;;;;;;23.33;5.90;;;7.60;99.90;;;;;;5059344;28;20075;-47
2022/01/04 04:43:11;;;;;;;27.27;7.00;;;7.60;99.90;;;;;;5056716;28;20036;-51
2022/01/04 04:45:37;;;;;;;22.33;5.22;;;7.60;99.90;;;;;;5062166;28;20301;-49
2022/01/04 04:48:03;;;;;;;25.15;6.05;;;7.60;99.90;;;;;;5045707;28;20131;-46
2022/01/04 04:50:29;;;;;;;25.25;6.00;;;7.60;99.90;;;;;;5049803;28;20121;-46
2022/01/04 04:52:57;;;;;;;19.33;5.55;;;7.60;99.90;;;;;;5069091;28;20063;-49
2022/01/04 04:55:23;;;;;;;;;;;7.60;99.90;;;;;;5063123;28;20044;-47
2022/01/04 04:57:48;;;;;;;;;;;7.50;99.90;;;;;;5069216;28;19993;-50
2022/01/04 05:00:14;;;;;;;;;;;7.50;99.90;;;;;;5070740;28;19932;-50
2022/01/04 05:02:40;;;;;;;;;;;7.50;99.90;;;;;;5061531;28;19920;-51
2022/01/04 05:05:07;;;;;;;;;;;7.50;99.90;;;;;;5069736;28;19921;-47
2022/01/04 05:07:34;;;;;;;;;;;7.50;99.90;;;;;;5094865;28;20362;-48
2022/01/04 05:10:02;;;;;;;;;;;7.50;99.90;;;;;;5063795;28;19981;-47
2022/01/04 05:12:28;;;;;;;;;;;7.50;99.90;;;;;;5065999;28;19916;-46
2022/01/04 05:14:54;;;;;;;;;;;7.50;99.90;;;;;;5075655;28;19917;-46
2022/01/04 05:17:19;;;;;;;;;;;7.50;99.90;;;;;;5082146;28;20535;-47
2022/01/04 05:19:45;;;;;;;;;;;7.50;99.90;;;;;;5082448;28;19955;-48
2022/01/04 05:22:11;;;;;;;;;;;7.50;99.90;;;;;;5062338;28;19950;-46
2022/01/04 05:24:37;;;;;;;;;;;7.50;99.90;;;;;;5067075;28;19921;-47
2022/01/04 05:27:03;;;;;;;;;;;7.50;99.90;;;;;;5068466;28;19923;-45
2022/01/04 05:29:29;;;;;;;;;;;7.60;99.90;;;;;;5051307;28;19916;-46
2022/01/04 05:31:54;;;;;;;;;;;7.60;99.90;;;;;;5057387;28;19920;-47
2022/01/04 05:34:20;;;;;;;;;;;7.50;99.90;;;;;;5066292;28;19927;-46
2022/01/04 05:36:46;;;;;;;;;;;7.50;99.90;;;;;;5084897;28;19924;-50
2022/01/04 05:39:12;;;;;;;;;;;7.50;99.90;;;;;;5074164;28;19916;-51
2022/01/04 05:41:37;;;;;;;;;;;7.50;99.90;;;;;;5079553;28;19960;-51
2022/01/04 05:44:03;;;;;;;;;;;7.50;99.90;;;;;;5054125;28;19985;-46
2022/01/04 05:46:29;;;;;;;;;;;7.50;99.90;;;;;;5069671;28;19999;-47
2022/01/04 05:48:55;;;;;;;;;;;7.40;99.90;;;;;;5064965;28;19920;-48
2022/01/04 05:51:20;;;;;;;;;;;7.40;99.90;;;;;;5054196;28;19917;-47
2022/01/04 05:53:46;;;;;;;;;;;7.40;99.90;;;;;;5066095;28;19932;-46
2022/01/04 05:56:13;;;;;;;;;;;7.40;99.90;;;;;;5066311;28;19998;-47
2022/01/04 05:58:39;;;;;;;;;;;7.40;99.90;;;;;;5078573;28;19924;-50
2022/01/04 06:01:06;;;;;;;;;;;7.30;99.90;;;;;;5055588;28;20301;-49
2022/01/04 06:03:31;;;;;;;;;;;7.30;99.90;;;;;;5069001;28;19924;-46
2022/01/04 06:05:59;;;;;;;;;;;7.30;99.90;;;;;;5067063;28;19927;-50
2022/01/04 06:08:30;;;;;;;;;;;7.30;99.90;;;;;;5058272;28;19917;-49
2022/01/04 06:10:56;;;;;;;;;;;7.30;99.90;;;;;;5061779;28;19938;-50
2022/01/04 06:16:15;;;;;;;;;;;7.30;99.90;;;;;;5068523;28;20054;-45
2022/01/04 06:18:44;;;;;;;;;;;7.30;99.90;;;;;;5097276;28;19920;-46
2022/01/04 06:21:12;;;;;;;;;;;7.30;99.90;;;;;;5060124;28;19920;-51
2022/01/04 06:23:38;;;;;;;;;;;7.30;99.90;;;;;;5077114;28;20285;-46
2022/01/04 06:26:04;;;;;;;;;;;7.40;99.90;;;;;;5058999;28;19921;-51
2022/01/04 06:28:32;;;;;;;;;;;7.40;99.90;;;;;;5060082;28;20340;-49
2022/01/04 06:31:01;;;;;;;;;;;7.40;99.90;;;;;;5065288;28;19916;-50
2022/01/04 06:33:30;;;;;;;;;;;7.40;99.90;;;;;;5064138;28;19928;-47
2022/01/04 06:35:57;;;;;;;;;;;7.40;99.90;;;;;;5044508;28;19921;-49
2022/01/04 06:38:22;;;;;;;;;;;7.40;99.90;;;;;;5057425;28;19933;-47
2022/01/04 06:40:48;;;;;;;;;;;7.40;99.90;;;;;;5094317;27;19924;-47
2022/01/04 06:43:14;;;;;;;;;;;7.40;99.90;;;;;;5055104;28;20011;-47
2022/01/04 06:45:41;;;;;;;;;;;7.40;99.90;;;;;;5059212;28;20351;-48
2022/01/04 06:48:06;;;;;;;;;;;7.50;99.90;;;;;;5063272;28;19920;-49
2022/01/04 06:50:32;;;;;;;;;;;7.50;99.90;;;;;;5093445;28;19927;-50
2022/01/04 06:53:01;;;;;;;;;;;7.50;99.90;;;;;;5068225;28;19966;-50
2022/01/04 06:55:34;;;;;;;;;;;7.50;99.90;;;;;;5048669;28;19931;-50
2022/01/04 06:58:00;;;;;;;;;;;7.50;99.90;;;;;;5092751;28;19921;-48
2022/01/04 07:00:26;;;;;;;;;;;7.50;99.90;;;;;;5056912;28;20258;-46
2022/01/04 07:02:52;;;;;;;;;;;7.50;99.90;;;;;;5048779;28;19920;-46
2022/01/04 07:05:18;;;;;;;;;;;7.50;99.90;;;;;;5064708;28;19916;-51
2022/01/04 07:07:44;;;;;;;;;;;7.40;99.90;;;;;;5048472;28;19916;-49
2022/01/04 07:10:10;;;;;;;;;;;7.40;99.90;;;;;;5061007;28;19924;-47
2022/01/04 07:12:36;;;;;;;;;;;7.40;99.90;;;;;;5089006;28;19975;-49
2022/01/04 07:15:03;;;;;;;;;;;7.30;99.90;;;;;;5065285;28;19916;-49
2022/01/04 07:17:28;;;;;;;;;;;7.30;99.90;;;;;;5066282;28;19955;-51
2022/01/04 07:19:54;;;;;;;;;;;7.30;99.90;;;;;;5066046;28;19962;-47
2022/01/04 07:22:20;;;;;;;;;;;7.30;99.90;;;;;;5064825;28;19920;-48
2022/01/04 07:24:48;;;;;;;;;;;7.40;99.90;;;;;;5048431;28;19928;-51
2022/01/04 07:27:14;;;;;;;;;;;7.40;99.90;;;;;;5061557;28;19967;-48
2022/01/04 07:29:42;;;;;;;;;;;7.30;99.90;;;;;;5079957;28;20353;-50
2022/01/04 07:32:08;;;;;;;;;;;7.30;99.90;;;;;;5065872;28;19959;-48
2022/01/04 07:34:33;;;;;;;;;;;7.40;99.90;;;;;;5065900;28;19974;-50
2022/01/04 07:36:59;;;;;;;;;;;7.30;99.90;;;;;;5061915;28;20011;-47
2022/01/04 07:39:26;;;;;;;;;;;7.30;99.90;;;;;;5061758;28;19920;-49
2022/01/04 07:41:51;;;;;;;;;;;7.40;99.90;;;;;;5080116;28;20343;-46
2022/01/04 07:44:17;;;;;;;;;;;7.40;99.90;;;;;;5047257;28;19943;-50
2022/01/04 07:46:43;;;;;;;;;;;7.40;99.90;;;;;;5067137;28;19922;-47
2022/01/04 07:49:09;;;;;;;;;;;7.40;99.90;;;;;;5098184;28;19917;-50
2022/01/04 07:51:36;;;;;;;;;;;7.40;99.90;;;;;;5060676;28;20015;-47
2022/01/04 07:54:02;;;;;;;;;;;7.40;99.90;;;;;;5080682;28;19921;-49
2022/01/04 07:56:27;;;;;;;;;;;7.30;99.90;;;;;;5064709;28;20100;-51
2022/01/04 07:58:58;;;;;;;;;;;7.40;99.90;;;;;;5064145;28;20659;-48
2022/01/04 08:01:24;;;;;;;;;;;7.30;99.90;;;;;;5062868;28;19920;-48
2022/01/04 08:04:08;;;;;;;;;;;7.30;99.90;;;;;;5042202;28;20712;-49
2022/01/04 08:06:34;;;;;;;;;;;7.30;99.90;;;;;;5079296;28;20357;-50
2022/01/04 08:09:00;;;;;;;;;;;7.40;99.90;;;;;;5062834;28;19973;-49
2022/01/04 08:11:26;;;;;;;;;;;7.40;99.90;;;;;;5059682;28;19920;-47
2022/01/04 08:13:53;;;;;;;;;;;7.30;99.90;;;;;;5074327;28;19920;-48
2022/01/04 08:16:19;;;;;;;;;;;7.30;99.90;;;;;;5064652;28;19928;-51
2022/01/04 08:18:45;;;;;;;;;;;7.30;99.90;;;;;;5063285;28;19924;-46
2022/01/04 08:21:10;;;;;;;;;;;7.30;99.90;;;;;;5065837;28;19921;-49
2022/01/04 08:23:36;;;;;;;;;;;7.30;99.90;;;;;;5066761;28;19970;-46
2022/01/04 08:26:02;;;;;;;;;;;7.30;99.90;;;;;;5057908;28;19920;-48
2022/01/04 08:28:28;;;;;;;;;;;7.30;99.90;;;;;;5029641;28;20414;-50
2022/01/04 08:30:58;;;;;;;;;;;7.30;99.90;;;;;;5069568;28;19920;-48
2022/01/04 08:33:23;;;;;;;;;;;7.30;99.90;;;;;;5057795;28;19970;-49
2022/01/04 08:35:49;;;;;;;;;;;7.30;99.90;;;;;;5066201;28;19916;-46
2022/01/04 08:38:15;;;;;;;;;;;7.30;99.90;;;;;;5079789;28;19920;-47
2022/01/04 08:40:41;;;;;;;;;;;7.30;99.90;;;;;;5067240;28;19928;-48
2022/01/04 08:43:07;;;;;;;;;;;7.30;99.90;;;;;;5065875;28;19917;-46
2022/01/04 08:45:34;;;;;;;;;;;7.30;99.90;;;;;;5064306;28;20026;-47
2022/01/04 08:48:00;;;;;;;;;;;7.30;99.90;;;;;;5064065;28;19924;-45
2022/01/04 08:50:32;;;;;;;;;;;7.40;99.90;;;;;;5068407;28;19992;-47
2022/01/04 08:52:57;;;;;;;;;;;7.30;99.90;;;;;;5064755;28;19920;-45
2022/01/04 08:55:25;;;;;;;;;;;7.40;99.90;;;;;;5065630;28;20333;-45
2022/01/04 08:57:51;;;;;;;;;;;7.40;99.90;;;;;;5062296;28;19932;-44
2022/01/04 09:00:18;;;;;;;;;;;7.30;99.90;;;;;;5066051;28;19924;-44
2022/01/04 09:02:44;;;;;;;;;;;7.30;99.90;;;;;;5059977;28;20010;-49
2022/01/04 09:05:11;;;;;;;;;;;7.20;99.90;;;;;;5078310;28;20353;-47
2022/01/04 09:07:43;;;;;;;;;;;7.00;99.90;;;;;;5066358;28;19921;-45
2022/01/04 09:10:10;;;;;;;;;;;6.90;99.90;;;;;;5059841;28;20326;-47
2022/01/04 09:12:55;;;;;;;;;;;6.80;99.90;;;;;;5096592;28;19924;-45
2022/01/04 09:15:31;;;;;;;;;;;6.80;99.90;;;;;;5065114;28;19974;-47
2022/01/04 09:20:45;;;;;;;;;;;6.60;99.90;;;;;;5086280;28;19923;-45
2022/01/04 09:23:18;;;;;;;;;;;6.60;99.90;;;;;;5054270;28;19916;-49
2022/01/04 09:25:45;;;;;;;;;;;6.60;99.90;;;;;;5049107;28;20389;-45
2022/01/04 09:28:11;;;;;;;;;;;6.50;99.90;;;;;;5065094;28;19962;-48
2022/01/04 09:30:38;;;;;;;;;;;6.50;99.90;;;;;;5069156;28;19916;-48
2022/01/04 09:33:05;;;;;;;;;;;6.50;99.90;;;;;;5071949;28;19951;-47
2022/01/04 09:35:36;;;;;;;;;;;6.50;99.90;;;;;;5085301;28;19917;-46
2022/01/04 09:38:03;;;;;;;;;;;6.40;99.90;;;;;;5071324;28;20124;-45
2022/01/04 09:40:29;;;;;;;;;;;6.40;99.90;;;;;;5064299;28;19923;-46
2022/01/04 09:42:56;;;;;;;;;;;6.30;99.90;;;;;;5069762;28;20345;-48
2022/01/04 09:45:22;;;;;;;;;;;6.30;99.90;;;;;;5104167;28;19947;-46
2022/01/04 09:47:48;;;;;;;;;;;6.30;99.90;;;;;;5055745;28;19923;-44
2022/01/04 09:50:14;;;;;;;;;;;6.20;99.90;;;;;;5067529;28;19920;-45
2022/01/04 09:52:49;;;;;;;;;;;6.20;99.90;;;;;;5066586;28;20305;-47
2022/01/04 09:55:15;;;;;;;;;;;6.20;99.90;;;;;;5089274;28;19928;-47
2022/01/04 09:57:45;;;;;;;;;;;6.20;99.90;;;;;;5063930;28;19971;-46
2022/01/04 10:00:16;;;;;;;;;;;6.10;99.90;;;;;;5099969;28;20355;-45
2022/01/04 10:57:37;;;;;;;;;;;5.70;99.90;;;;;;5058813;28;19913;-48
2022/01/04 11:00:13;;;;;;;;;;;5.70;99.90;;;;;;5011872;28;19969;-45
2022/01/04 11:02:39;;;;;;;;;;;5.70;99.90;;;;;;5044744;28;20232;-47
2022/01/04 11:05:15;;;;;;;;;;;5.60;99.90;;;;;;5028578;28;19927;-45
2022/01/04 11:08:17;;;;;;;;;;;5.50;99.90;;;;;;5030967;28;19917;-49
2022/01/04 11:10:44;;;;;;;;;;;5.40;99.90;;;;;;5026643;28;19923;-50
2022/01/04 13:52:40;;;;;;;;;;;5.50;99.90;;;;;;5085609;27;19927;-44
2022/01/04 13:55:07;;;;;;;;;;;5.60;99.90;;;;;;5051515;28;19928;-44
2022/01/04 13:57:33;;;;;;;;;;;5.60;99.90;;;;;;5031613;28;19928;-45
2022/01/04 14:00:18;;;;;;;;;;;5.60;99.90;;;;;;5050168;28;19943;-46
2022/01/04 14:02:46;;;;;;;;;;;5.60;99.90;;;;;;5025712;28;19924;-47
2022/01/04 14:05:17;;;;;;;;;;;5.60;99.90;;;;;;5051060;28;20231;-44
2022/01/04 14:11:05;;;;;;;;;;;5.50;99.90;;;;;;5072721;28;19999;-46
2022/01/04 14:13:39;;;;;;;;;;;5.40;99.90;;;;;;5065757;28;20003;-45
2022/01/04 14:16:06;;;;;;;;;;;5.40;99.90;;;;;;5066946;28;20385;-48
2022/01/04 14:18:32;;;;;;;;;;;5.40;99.90;;;;;;5046792;28;19916;-44
2022/01/04 14:20:58;;;;;;;;;;;5.30;99.90;;;;;;5034502;28;19924;-46
2022/01/04 14:23:44;;;;;;;;;;;5.30;99.90;;;;;;5051790;28;19916;-44
2022/01/04 14:26:09;;;;;;;;;;;5.20;99.90;;;;;;5061377;28;19920;-49
2022/01/04 14:28:35;;;;;;;;;;;5.20;99.90;;;;;;5049337;28;19981;-46
2022/01/04 14:31:01;;;;;;;;;;;5.20;99.90;;;;;;5047090;28;19917;-44
2022/01/04 14:33:27;;;;;;;;;;;5.20;99.90;;;;;;5056619;28;20326;-46
2022/01/04 14:35:54;;;;;;;;;;;5.20;99.90;;;;;;5050308;28;19927;-47
2022/01/04 14:38:21;;;;;;;;;;;5.20;99.90;;;;;;5037199;28;19920;-46
2022/01/04 14:40:48;;;;;;;;;;;5.20;99.90;;;;;;5051835;28;19931;-44
2022/01/04 14:43:14;;;;;;;;;;;5.10;99.90;;;;;;5072477;28;19931;-48
2022/01/04 14:45:40;;;;;;;;;;;5.10;99.90;;;;;;5075871;28;19920;-44
2022/01/04 14:48:07;;;;;;;;;;;5.00;99.90;;;;;;5048133;28;19968;-44
2022/01/04 14:50:33;;;;;;;;;;;5.00;99.90;;;;;;5047556;28;19927;-46
2022/01/04 14:53:01;;;;;;;;;;;4.90;99.90;;;;;;5036080;28;19920;-44
2022/01/04 14:55:28;;;;;;;;;;;4.80;99.90;;;;;;5066115;28;19930;-44
2022/01/04 14:57:53;;;;;;;;;;;4.80;99.90;;;;;;5064097;28;19962;-45
2022/01/04 15:00:19;;;;;;;;;;;4.70;99.90;;;;;;5050642;28;19916;-44
2022/01/04 15:02:48;;;;;;;;;;;4.60;99.90;;;;;;5048263;28;19982;-44
2022/01/04 15:05:15;;;;;;;;;;;4.60;99.90;;;;;;5066837;28;19970;-45
2022/01/04 15:07:41;;;;;;;;;;;4.50;99.90;;;;;;5066869;28;19916;-44
2022/01/04 15:10:07;;;;;;;;;;;4.50;99.90;;;;;;5050108;28;19986;-47
2022/01/04 15:12:33;;;;;;;;;;;4.40;99.90;;;;;;5049279;28;19916;-44
2022/01/04 15:14:59;;;;;;;;;;;4.40;99.90;;;;;;5066122;28;20454;-43
2022/01/04 15:17:25;;;;;;;;;;;4.30;99.90;;;;;;5081534;28;19920;-46
2022/01/04 15:19:53;;;;;;;;;;;4.30;99.90;;;;;;5066391;28;20302;-43
2022/01/04 15:22:19;;;;;;;;;;;4.20;99.90;;;;;;5047657;28;20311;-47
2022/01/04 15:24:45;;;;;;;;;;;4.20;99.90;;;;;;5064745;28;20075;-46
2022/01/04 15:27:13;;;;;;;;;;;4.10;99.90;;;;;;5067716;28;20370;-45
2022/01/04 15:29:39;;;;;;;;;;;4.10;99.90;;;;;;5049959;28;19923;-47
2022/01/04 15:32:05;;;;;;;;;;;4.00;99.90;;;;;;5081707;28;19924;-44
2022/01/04 15:34:30;;;;;;;;;;;4.00;99.90;;;;;;5048948;28;20001;-45
2022/01/04 15:36:56;;;;;;;;;;;4.00;99.90;;;;;;5080079;28;19916;-43
2022/01/04 15:39:24;;;;;;;;;;;3.90;99.90;;;;;;5065119;28;19917;-44
2022/01/04 15:41:51;;;;;;;;;;;3.90;99.90;;;;;;5064864;28;19924;-46
2022/01/04 15:44:19;;;;;;;;;;;3.90;99.90;;;;;;5082797;28;19967;-44
2022/01/04 15:46:45;;;;;;;;;;;3.90;99.90;;;;;;5065864;28;19920;-46
2022/01/04 15:49:11;;;;;;;;;;;3.80;99.90;;;;;;5069349;28;19976;-44
2022/01/04 15:51:37;;;;;;;;;;;3.80;99.90;;;;;;5065395;28;19925;-46
2022/01/04 15:54:03;;;;;;;;;;;3.80;99.90;;;;;;5047061;28;19920;-43
2022/01/04 15:56:30;;;;;;;;;;;3.80;99.90;;;;;;5066471;28;20326;-45
2022/01/04 15:58:57;;;;;;;;;;;3.70;99.90;;;;;;5064111;28;20007;-46
2022/01/04 16:01:24;;;;;;;;;;;3.70;99.90;;;;;;5067363;28;19923;-46
2022/01/04 16:03:51;;;;;;;;;;;3.70;99.90;;;;;;5030749;28;19924;-45
2022/01/04 16:06:17;;;;;;;;;;;3.70;99.90;;;;;;5030636;28;19973;-46
2022/01/04 16:08:42;;;;;;;;;;;3.70;99.90;;;;;;5060589;28;19916;-42
2022/01/04 16:11:15;;;;;;;;;;;3.70;99.90;;;;;;5060970;28;19985;-45
2022/01/04 16:13:41;;;;;;;;;;;3.60;99.90;;;;;;5048109;28;19924;-45
2022/01/04 16:21:36;;;;;;;;;;;3.70;99.90;;;;;;5047426;28;19920;-45
2022/01/04 16:24:10;;;;;;;;;;;3.70;99.90;;;;;;5069514;28;19962;-45
2022/01/04 16:26:38;;;;;;;;;;;3.80;99.90;;;;;;5081045;28;19927;-47
2022/01/04 16:29:07;;;;;;;;;;;3.80;99.90;;;;;;5066937;28;19956;-47
2022/01/04 16:31:33;;;;;;;;;;;3.80;99.90;;;;;;5032109;28;19916;-46
2022/01/04 16:34:02;;;;;;;;;;;3.80;99.90;;;;;;5048997;28;19931;-48
2022/01/04 16:36:30;;;;;;;;;;;3.80;99.90;;;;;;5050689;28;19920;-44
2022/01/04 16:38:56;;;;;;;;;;;3.80;99.90;;;;;;5081028;28;20003;-45
2022/01/04 16:41:22;;;;;;;;;;;3.80;99.90;;;;;;5066112;28;19940;-46
2022/01/04 16:43:51;;;;;;;;;;;3.80;99.90;;;;;;5036810;28;19932;-49
2022/01/04 16:46:18;;;;;;;;;;;3.80;99.90;;;;;;5071922;28;19977;-47
2022/01/04 16:48:44;;;;;;;;;;;3.80;99.90;;;;;;5046850;28;19916;-46
2022/01/04 16:51:10;;;;;;;;;;;3.80;99.90;;;;;;5068149;28;19935;-48
2022/01/04 16:53:36;;;;;;;;;;;3.80;99.90;;;;;;5059174;28;19924;-49
2022/01/04 16:56:02;;;;;;;;;;;3.80;99.90;;;;;;5053285;28;19923;-46
2022/01/04 16:58:27;;;;;;;;;;;3.70;99.90;;;;;;5070108;28;20008;-49
2022/01/04 17:00:53;;;;;;;;;;;3.70;99.90;;;;;;5049687;28;19916;-49
2022/01/04 17:03:19;;;;;;;;;;;3.60;99.90;;;;;;5078249;28;19921;-47
2022/01/04 17:05:45;;;;;;;;;;;3.50;99.90;;;;;;5077537;28;20387;-46
2022/01/04 17:08:11;;;;;;;;;;;3.50;99.90;;;;;;5055101;28;19920;-48
2022/01/04 17:10:51;;;;;;;;;;;3.40;99.90;;;;;;5050200;28;20011;-47
2022/01/04 17:16:01;;;;;;;;;;;3.30;99.90;;;;;;5080234;28;19916;-48
2022/01/04 17:18:27;;;;;;;;;;;3.20;99.90;;;;;;5050535;28;19923;-46
2022/01/04 17:44:54;;;;;;;;;;;3.10;99.90;;;;;;5073403;28;20334;-45
2022/01/04 17:47:20;;;;;;;;;;;3.10;99.90;;;;;;5065567;28;20472;-47
2022/01/04 17:49:47;;;;;;;;;;;3.10;99.90;;;;;;5052951;28;19920;-46
2022/01/04 17:52:13;;;;;;;;;;;3.20;99.90;;;;;;5048554;28;19916;-46
2022/01/04 17:54:39;;;;;;;;;;;3.20;99.90;;;;;;5084261;28;19928;-46
2022/01/04 17:57:05;;;;;;;;;;;3.20;99.90;;;;;;5041358;28;19916;-45
2022/01/04 17:59:31;;;;;;;;;;;3.20;99.90;;;;;;5063550;28;19924;-45
2022/01/04 18:01:56;;;;;;;;;;;3.20;99.90;;;;;;5078231;28;19920;-48
2022/01/04 18:04:22;;;;;;;;;;;3.20;99.90;;;;;;5044274;28;19920;-46
2022/01/04 18:06:49;;;;;;;;;;;3.20;99.90;;;;;;5049285;28;20354;-46
2022/01/04 18:09:14;;;;;;;;;;;3.20;99.90;;;;;;5063916;28;19944;-48